sensor_id;sensor_type;location;lat;lon;timestamp;temperature;humidity
38902;DHT22;24661;53.566;9.910;2023-01-09T00:00:19;6.50;99.90
38902;DHT22;24661;53.566;9.910;2023-01-09T00:02:47;6.50;99.90
38902;DHT22;24661;53.566;9.910;2023-01-09T00:05:15;6.40;99.90
38902;DHT22;24661;53.566;9.910;2023-01-09T00:07:41;6.50;99.90
38902;DHT22;24661;53.566;9.910;2023-01-09T00:10:08;6.50;99.90
38902;DHT22;24661;53.566;9.910;2023-01-09T00:12:34;6.50;99.90
38902;DHT22;24661;53.566;9.910;2023-01-09T00:14:59;6.50;99.90
38902;DHT22;24661;53.566;9.910;2023-01-09T00:17:25;6.50;99.90
38902;DHT22;24661;53.566;9.910;2023-01-09T00:19:50;6.40;99.90
38902;DHT22;24661;53.566;9.910;2023-01-09T00:22:16;6.40;99.90
38902;DHT22;24661;53.566;9.910;2023-01-09T00:24:42;6.40;99.90
38902;DHT22;24661;53.566;9.910;2023-01-09T00:27:07;6.40;99.90
38902;DHT22;24661;53.566;9.910;2023-01-09T00:29:33;6.40;99.90
38902;DHT22;24661;53.566;9.910;2023-01-09T00:31:58;6.40;99.90
38902;DHT22;24661;53.566;9.910;2023-01-09T00:34:25;6.40;99.90
38902;DHT22;24661;53.566;9.910;2023-01-09T00:36:50;6.40;99.90
38902;DHT22;24661;53.566;9.910;2023-01-09T00:39:21;6.40;99.90
38902;DHT22;24661;53.566;9.910;2023-01-09T00:41:50;6.40;99.90
38902;DHT22;24661;53.566;9.910;2023-01-09T00:44:26;6.30;99.90
38902;DHT22;24661;53.566;9.910;2023-01-09T00:46:57;6.40;99.90
38902;DHT22;24661;53.566;9.910;2023-01-09T00:49:31;6.40;99.90
38902;DHT22;24661;53.566;9.910;2023-01-09T00:51:57;6.40;99.90
38902;DHT22;24661;53.566;9.910;2023-01-09T00:54:23;6.50;99.90
38902;DHT22;24661;53.566;9.910;2023-01-09T00:56:49;6.50;99.90
38902;DHT22;24661;53.566;9.910;2023-01-09T00:59:15;6.50;99.90
38902;DHT22;24661;53.566;9.910;2023-01-09T01:01:41;6.50;99.90
38902;DHT22;24661;53.566;9.910;2023-01-09T01:04:07;6.50;99.90
38902;DHT22;24661;53.566;9.910;2023-01-09T01:06:51;6.50;99.90
38902;DHT22;24661;53.566;9.910;2023-01-09T01:09:35;6.50;99.90
38902;DHT22;24661;53.566;9.910;2023-01-09T01:12:02;6.60;99.90
38902;DHT22;24661;53.566;9.910;2023-01-09T01:14:33;6.50;99.90
38902;DHT22;24661;53.566;9.910;2023-01-09T01:16:58;6.50;99.90
38902;DHT22;24661;53.566;9.910;2023-01-09T01:19:24;6.50;99.90
38902;DHT22;24661;53.566;9.910;2023-01-09T01:21:50;6.40;99.90
38902;DHT22;24661;53.566;9.910;2023-01-09T01:24:16;6.40;99.90
38902;DHT22;24661;53.566;9.910;2023-01-09T01:26:46;6.40;99.90
38902;DHT22;24661;53.566;9.910;2023-01-09T01:29:12;6.40;99.90
38902;DHT22;24661;53.566;9.910;2023-01-09T01:31:38;6.40;99.90
38902;DHT22;24661;53.566;9.910;2023-01-09T01:34:03;6.30;99.90
38902;DHT22;24661;53.566;9.910;2023-01-09T01:36:32;6.30;99.90
38902;DHT22;24661;53.566;9.910;2023-01-09T01:39:00;6.30;99.90
38902;DHT22;24661;53.566;9.910;2023-01-09T01:41:26;6.30;99.90
38902;DHT22;24661;53.566;9.910;2023-01-09T01:44:04;6.30;99.90
38902;DHT22;24661;53.566;9.910;2023-01-09T01:46:31;6.30;99.90
38902;DHT22;24661;53.566;9.910;2023-01-09T01:49:10;6.30;99.90
38902;DHT22;24661;53.566;9.910;2023-01-09T01:51:42;6.30;99.90
38902;DHT22;24661;53.566;9.910;2023-01-09T01:54:21;6.30;99.90
38902;DHT22;24661;53.566;9.910;2023-01-09T01:56:53;6.30;99.90
38902;DHT22;24661;53.566;9.910;2023-01-09T02:01:58;6.30;99.90
38902;DHT22;24661;53.566;9.910;2023-01-09T02:04:24;6.30;99.90
38902;DHT22;24661;53.566;9.910;2023-01-09T02:06:52;6.30;99.90
38902;DHT22;24661;53.566;9.910;2023-01-09T02:09:18;6.30;99.90
38902;DHT22;24661;53.566;9.910;2023-01-09T02:11:49;6.30;99.90
38902;DHT22;24661;53.566;9.910;2023-01-09T02:14:18;6.30;99.90
38902;DHT22;24661;53.566;9.910;2023-01-09T02:17:00;6.30;99.90
38902;DHT22;24661;53.566;9.910;2023-01-09T02:25:34;6.30;99.90
38902;DHT22;24661;53.566;9.910;2023-01-09T02:31:21;6.30;99.90
38902;DHT22;24661;53.566;9.910;2023-01-09T02:34:26;7.60;99.90
38902;DHT22;24661;53.566;9.910;2023-01-09T02:37:15;6.30;99.90
38902;DHT22;24661;53.566;9.910;2023-01-09T02:39:46;6.40;99.90
38902;DHT22;24661;53.566;9.910;2023-01-09T02:42:18;6.40;99.90
38902;DHT22;24661;53.566;9.910;2023-01-09T02:44:45;6.40;99.90
38902;DHT22;24661;53.566;9.910;2023-01-09T02:49:45;6.40;99.90
38902;DHT22;24661;53.566;9.910;2023-01-09T02:55:05;6.40;99.90
38902;DHT22;24661;53.566;9.910;2023-01-09T03:05:32;6.40;99.90
38902;DHT22;24661;53.566;9.910;2023-01-09T03:08:04;6.50;99.90
38902;DHT22;24661;53.566;9.910;2023-01-09T03:10:33;6.50;99.90
38902;DHT22;24661;53.566;9.910;2023-01-09T03:13:01;6.00;99.90
38902;DHT22;24661;53.566;9.910;2023-01-09T03:15:31;6.70;99.90
38902;DHT22;24661;53.566;9.910;2023-01-09T03:17:59;6.80;99.90
38902;DHT22;24661;53.566;9.910;2023-01-09T03:20:26;6.80;99.90
38902;DHT22;24661;53.566;9.910;2023-01-09T03:23:03;6.90;99.90
38902;DHT22;24661;53.566;9.910;2023-01-09T03:25:30;6.90;99.90
38902;DHT22;24661;53.566;9.910;2023-01-09T03:27:58;7.00;99.90
38902;DHT22;24661;53.566;9.910;2023-01-09T03:30:26;7.00;99.90
38902;DHT22;24661;53.566;9.910;2023-01-09T03:32:52;5.60;99.90
38902;DHT22;24661;53.566;9.910;2023-01-09T03:35:17;7.10;99.90
38902;DHT22;24661;53.566;9.910;2023-01-09T03:37:43;7.10;99.90
38902;DHT22;24661;53.566;9.910;2023-01-09T03:40:09;7.10;99.90
38902;DHT22;24661;53.566;9.910;2023-01-09T03:42:36;7.20;99.90
38902;DHT22;24661;53.566;9.910;2023-01-09T03:45:02;7.20;99.90
38902;DHT22;24661;53.566;9.910;2023-01-09T03:47:28;7.20;99.90
38902;DHT22;24661;53.566;9.910;2023-01-09T03:49:53;7.30;99.90
38902;DHT22;24661;53.566;9.910;2023-01-09T03:52:19;7.30;99.90
38902;DHT22;24661;53.566;9.910;2023-01-09T03:54:44;7.40;99.90
38902;DHT22;24661;53.566;9.910;2023-01-09T03:57:10;7.40;99.90
38902;DHT22;24661;53.566;9.910;2023-01-09T03:59:36;7.40;99.90
38902;DHT22;24661;53.566;9.910;2023-01-09T04:02:01;7.50;99.90
38902;DHT22;24661;53.566;9.910;2023-01-09T04:04:29;7.60;99.90
38902;DHT22;24661;53.566;9.910;2023-01-09T04:06:55;7.60;99.90
38902;DHT22;24661;53.566;9.910;2023-01-09T04:09:21;7.60;99.90
38902;DHT22;24661;53.566;9.910;2023-01-09T04:11:47;7.60;99.90
38902;DHT22;24661;53.566;9.910;2023-01-09T04:14:13;7.70;99.90
38902;DHT22;24661;53.566;9.910;2023-01-09T04:16:38;7.70;99.90
38902;DHT22;24661;53.566;9.910;2023-01-09T04:19:04;7.70;99.90
38902;DHT22;24661;53.566;9.910;2023-01-09T04:21:29;7.70;99.90
38902;DHT22;24661;53.566;9.910;2023-01-09T04:23:55;7.70;99.90
38902;DHT22;24661;53.566;9.910;2023-01-09T04:26:20;7.80;99.90
38902;DHT22;24661;53.566;9.910;2023-01-09T04:28:46;7.80;99.90
38902;DHT22;24661;53.566;9.910;2023-01-09T04:31:12;7.70;99.90
38902;DHT22;24661;53.566;9.910;2023-01-09T04:33:38;7.80;99.90
38902;DHT22;24661;53.566;9.910;2023-01-09T04:36:03;7.70;99.90
38902;DHT22;24661;53.566;9.910;2023-01-09T04:38:29;7.80;99.90
38902;DHT22;24661;53.566;9.910;2023-01-09T04:40:55;7.80;99.90
38902;DHT22;24661;53.566;9.910;2023-01-09T04:43:20;7.70;99.90
38902;DHT22;24661;53.566;9.910;2023-01-09T04:45:46;7.70;99.90
38902;DHT22;24661;53.566;9.910;2023-01-09T04:48:11;7.70;99.90
38902;DHT22;24661;53.566;9.910;2023-01-09T04:50:37;7.70;99.90
38902;DHT22;24661;53.566;9.910;2023-01-09T04:53:03;7.80;99.90
38902;DHT22;24661;53.566;9.910;2023-01-09T04:55:30;7.80;99.90
38902;DHT22;24661;53.566;9.910;2023-01-09T04:57:55;7.70;99.90
38902;DHT22;24661;53.566;9.910;2023-01-09T05:00:21;7.70;99.90
38902;DHT22;24661;53.566;9.910;2023-01-09T05:02:46;7.70;99.90
38902;DHT22;24661;53.566;9.910;2023-01-09T05:05:12;7.60;99.90
38902;DHT22;24661;53.566;9.910;2023-01-09T05:07:38;7.60;99.90
38902;DHT22;24661;53.566;9.910;2023-01-09T05:10:04;7.60;99.90
38902;DHT22;24661;53.566;9.910;2023-01-09T05:12:30;7.50;99.90
38902;DHT22;24661;53.566;9.910;2023-01-09T05:14:55;7.50;99.90
38902;DHT22;24661;53.566;9.910;2023-01-09T05:17:22;7.50;99.90
38902;DHT22;24661;53.566;9.910;2023-01-09T05:19:48;7.40;99.90
38902;DHT22;24661;53.566;9.910;2023-01-09T05:22:13;7.50;99.90
38902;DHT22;24661;53.566;9.910;2023-01-09T05:24:39;7.40;99.90
38902;DHT22;24661;53.566;9.910;2023-01-09T05:27:05;7.40;99.90
38902;DHT22;24661;53.566;9.910;2023-01-09T05:29:31;7.40;99.90
38902;DHT22;24661;53.566;9.910;2023-01-09T05:31:56;7.50;99.90
38902;DHT22;24661;53.566;9.910;2023-01-09T05:34:22;7.50;99.90
38902;DHT22;24661;53.566;9.910;2023-01-09T05:36:47;7.50;99.90
38902;DHT22;24661;53.566;9.910;2023-01-09T05:39:13;7.50;99.90
38902;DHT22;24661;53.566;9.910;2023-01-09T05:41:39;7.50;99.90
38902;DHT22;24661;53.566;9.910;2023-01-09T05:44:04;7.50;99.90
38902;DHT22;24661;53.566;9.910;2023-01-09T05:46:31;7.50;99.90
38902;DHT22;24661;53.566;9.910;2023-01-09T05:48:56;7.70;99.90
38902;DHT22;24661;53.566;9.910;2023-01-09T05:51:22;7.40;99.90
38902;DHT22;24661;53.566;9.910;2023-01-09T05:53:48;7.40;99.90
38902;DHT22;24661;53.566;9.910;2023-01-09T05:56:13;7.40;99.90
38902;DHT22;24661;53.566;9.910;2023-01-09T05:58:39;7.40;99.90
38902;DHT22;24661;53.566;9.910;2023-01-09T06:01:05;7.30;99.90
38902;DHT22;24661;53.566;9.910;2023-01-09T06:03:31;7.30;99.90
38902;DHT22;24661;53.566;9.910;2023-01-09T06:05:56;7.30;99.90
38902;DHT22;24661;53.566;9.910;2023-01-09T06:08:22;7.30;99.90
38902;DHT22;24661;53.566;9.910;2023-01-09T06:10:48;7.20;99.90
38902;DHT22;24661;53.566;9.910;2023-01-09T06:13:14;7.30;99.90
38902;DHT22;24661;53.566;9.910;2023-01-09T06:15:40;7.30;99.90
38902;DHT22;24661;53.566;9.910;2023-01-09T06:18:05;7.20;99.90
38902;DHT22;24661;53.566;9.910;2023-01-09T06:20:31;7.30;99.90
38902;DHT22;24661;53.566;9.910;2023-01-09T06:22:57;7.30;99.90
38902;DHT22;24661;53.566;9.910;2023-01-09T06:25:22;7.20;99.90
38902;DHT22;24661;53.566;9.910;2023-01-09T06:27:48;7.20;99.90
38902;DHT22;24661;53.566;9.910;2023-01-09T06:30:14;7.20;99.90
38902;DHT22;24661;53.566;9.910;2023-01-09T06:32:40;7.20;99.90
38902;DHT22;24661;53.566;9.910;2023-01-09T06:35:05;7.20;99.90
38902;DHT22;24661;53.566;9.910;2023-01-09T06:37:31;7.20;99.90
38902;DHT22;24661;53.566;9.910;2023-01-09T06:39:58;7.20;99.90
38902;DHT22;24661;53.566;9.910;2023-01-09T06:42:23;7.20;99.90
38902;DHT22;24661;53.566;9.910;2023-01-09T06:44:49;7.10;99.90
38902;DHT22;24661;53.566;9.910;2023-01-09T06:47:15;7.20;99.90
38902;DHT22;24661;53.566;9.910;2023-01-09T06:49:40;7.10;99.90
38902;DHT22;24661;53.566;9.910;2023-01-09T06:52:06;7.20;99.90
38902;DHT22;24661;53.566;9.910;2023-01-09T06:54:32;7.10;99.90
38902;DHT22;24661;53.566;9.910;2023-01-09T06:56:58;7.20;99.90
38902;DHT22;24661;53.566;9.910;2023-01-09T06:59:24;7.20;99.90
38902;DHT22;24661;53.566;9.910;2023-01-09T07:01:50;7.20;99.90
38902;DHT22;24661;53.566;9.910;2023-01-09T07:04:15;7.10;99.90
38902;DHT22;24661;53.566;9.910;2023-01-09T07:06:42;7.10;99.90
38902;DHT22;24661;53.566;9.910;2023-01-09T07:09:08;7.10;99.90
38902;DHT22;24661;53.566;9.910;2023-01-09T07:11:40;7.10;99.90
38902;DHT22;24661;53.566;9.910;2023-01-09T07:14:06;7.10;99.90
38902;DHT22;24661;53.566;9.910;2023-01-09T07:16:31;7.00;99.90
38902;DHT22;24661;53.566;9.910;2023-01-09T07:18:58;7.00;99.90
38902;DHT22;24661;53.566;9.910;2023-01-09T07:21:23;7.00;99.90
38902;DHT22;24661;53.566;9.910;2023-01-09T07:23:49;7.00;99.90
38902;DHT22;24661;53.566;9.910;2023-01-09T07:26:14;7.00;99.90
38902;DHT22;24661;53.566;9.910;2023-01-09T07:28:40;7.00;99.90
38902;DHT22;24661;53.566;9.910;2023-01-09T07:31:05;7.00;99.90
38902;DHT22;24661;53.566;9.910;2023-01-09T07:33:33;7.00;99.90
38902;DHT22;24661;53.566;9.910;2023-01-09T07:35:58;6.90;99.90
38902;DHT22;24661;53.566;9.910;2023-01-09T07:38:24;7.00;99.90
38902;DHT22;24661;53.566;9.910;2023-01-09T07:40:50;6.90;99.90
38902;DHT22;24661;53.566;9.910;2023-01-09T07:43:16;7.00;99.90
38902;DHT22;24661;53.566;9.910;2023-01-09T07:45:41;6.90;99.90
38902;DHT22;24661;53.566;9.910;2023-01-09T07:48:07;6.90;99.90
38902;DHT22;24661;53.566;9.910;2023-01-09T07:50:33;6.90;99.90
38902;DHT22;24661;53.566;9.910;2023-01-09T07:52:58;6.90;99.90
38902;DHT22;24661;53.566;9.910;2023-01-09T07:55:24;6.90;99.90
38902;DHT22;24661;53.566;9.910;2023-01-09T07:57:50;6.90;99.90
38902;DHT22;24661;53.566;9.910;2023-01-09T08:00:17;6.90;99.90
38902;DHT22;24661;53.566;9.910;2023-01-09T08:02:43;6.90;99.90
38902;DHT22;24661;53.566;9.910;2023-01-09T08:05:09;5.70;99.90
38902;DHT22;24661;53.566;9.910;2023-01-09T08:07:39;6.90;99.90
38902;DHT22;24661;53.566;9.910;2023-01-09T08:10:05;6.90;99.90
38902;DHT22;24661;53.566;9.910;2023-01-09T08:12:31;6.90;99.90
38902;DHT22;24661;53.566;9.910;2023-01-09T08:14:56;6.90;99.90
38902;DHT22;24661;53.566;9.910;2023-01-09T08:17:22;7.00;99.90
38902;DHT22;24661;53.566;9.910;2023-01-09T08:19:47;7.00;99.90
38902;DHT22;24661;53.566;9.910;2023-01-09T08:22:13;7.00;99.90
38902;DHT22;24661;53.566;9.910;2023-01-09T08:24:38;7.00;99.90
38902;DHT22;24661;53.566;9.910;2023-01-09T08:27:04;7.00;99.90
38902;DHT22;24661;53.566;9.910;2023-01-09T08:29:30;7.00;99.90
38902;DHT22;24661;53.566;9.910;2023-01-09T08:31:55;7.00;99.90
38902;DHT22;24661;53.566;9.910;2023-01-09T08:34:21;7.00;99.90
38902;DHT22;24661;53.566;9.910;2023-01-09T08:36:46;7.00;99.90
38902;DHT22;24661;53.566;9.910;2023-01-09T08:39:12;7.00;99.90
38902;DHT22;24661;53.566;9.910;2023-01-09T08:41:38;7.00;99.90
38902;DHT22;24661;53.566;9.910;2023-01-09T08:44:22;6.90;99.90
38902;DHT22;24661;53.566;9.910;2023-01-09T08:47:06;6.90;99.90
38902;DHT22;24661;53.566;9.910;2023-01-09T08:49:34;6.90;99.90
38902;DHT22;24661;53.566;9.910;2023-01-09T08:52:00;6.80;99.90
38902;DHT22;24661;53.566;9.910;2023-01-09T08:54:26;6.80;99.90
38902;DHT22;24661;53.566;9.910;2023-01-09T08:56:52;6.70;99.90
38902;DHT22;24661;53.566;9.910;2023-01-09T08:59:17;6.70;99.90
38902;DHT22;24661;53.566;9.910;2023-01-09T09:01:43;6.70;99.90
38902;DHT22;24661;53.566;9.910;2023-01-09T09:04:09;6.70;99.90
38902;DHT22;24661;53.566;9.910;2023-01-09T09:06:34;6.70;99.90
38902;DHT22;24661;53.566;9.910;2023-01-09T09:09:00;6.70;99.90
38902;DHT22;24661;53.566;9.910;2023-01-09T09:11:31;6.60;99.90
38902;DHT22;24661;53.566;9.910;2023-01-09T09:13:57;6.60;99.90
38902;DHT22;24661;53.566;9.910;2023-01-09T09:16:26;6.60;99.90
38902;DHT22;24661;53.566;9.910;2023-01-09T09:18:52;6.60;99.90
38902;DHT22;24661;53.566;9.910;2023-01-09T09:21:18;6.60;99.90
38902;DHT22;24661;53.566;9.910;2023-01-09T09:23:45;6.60;99.90
38902;DHT22;24661;53.566;9.910;2023-01-09T09:26:11;6.60;99.90
38902;DHT22;24661;53.566;9.910;2023-01-09T09:28:36;6.70;99.90
38902;DHT22;24661;53.566;9.910;2023-01-09T09:31:07;6.80;99.90
38902;DHT22;24661;53.566;9.910;2023-01-09T09:33:32;6.80;99.90
38902;DHT22;24661;53.566;9.910;2023-01-09T09:35:58;6.90;99.90
38902;DHT22;24661;53.566;9.910;2023-01-09T09:38:25;6.90;99.90
38902;DHT22;24661;53.566;9.910;2023-01-09T09:44:34;6.90;99.90
38902;DHT22;24661;53.566;9.910;2023-01-09T09:53:09;6.90;99.90
38902;DHT22;24661;53.566;9.910;2023-01-09T09:55:39;6.20;99.90
38902;DHT22;24661;53.566;9.910;2023-01-09T09:58:20;7.00;99.90
38902;DHT22;24661;53.566;9.910;2023-01-09T10:00:49;7.00;99.90
38902;DHT22;24661;53.566;9.910;2023-01-09T10:03:38;6.90;99.90
38902;DHT22;24661;53.566;9.910;2023-01-09T10:06:09;6.90;99.90
38902;DHT22;24661;53.566;9.910;2023-01-09T10:13:58;6.90;99.90
38902;DHT22;24661;53.566;9.910;2023-01-09T10:16:48;6.80;99.90
38902;DHT22;24661;53.566;9.910;2023-01-09T10:38:04;6.80;99.90
38902;DHT22;24661;53.566;9.910;2023-01-09T10:40:49;6.90;99.90
38902;DHT22;24661;53.566;9.910;2023-01-09T10:43:29;6.90;99.90
38902;DHT22;24661;53.566;9.910;2023-01-09T10:46:04;7.00;99.90
38902;DHT22;24661;53.566;9.910;2023-01-09T10:48:36;6.90;99.90
38902;DHT22;24661;53.566;9.910;2023-01-09T10:51:17;6.90;99.90
38902;DHT22;24661;53.566;9.910;2023-01-09T10:53:50;6.90;99.90
38902;DHT22;24661;53.566;9.910;2023-01-09T10:56:27;7.00;99.90
38902;DHT22;24661;53.566;9.910;2023-01-09T10:58:54;8.10;99.90
38902;DHT22;24661;53.566;9.910;2023-01-09T11:01:40;7.10;99.90
38902;DHT22;24661;53.566;9.910;2023-01-09T11:04:29;7.10;99.90
38902;DHT22;24661;53.566;9.910;2023-01-09T11:06:58;7.10;99.90
38902;DHT22;24661;53.566;9.910;2023-01-09T11:09:24;7.10;99.90
38902;DHT22;24661;53.566;9.910;2023-01-09T11:11:50;7.10;99.90
38902;DHT22;24661;53.566;9.910;2023-01-09T11:14:24;7.10;99.90
38902;DHT22;24661;53.566;9.910;2023-01-09T11:17:02;7.20;99.90
38902;DHT22;24661;53.566;9.910;2023-01-09T11:19:29;7.30;99.90
38902;DHT22;24661;53.566;9.910;2023-01-09T11:22:16;7.30;99.90
38902;DHT22;24661;53.566;9.910;2023-01-09T11:24:42;7.30;99.90
38902;DHT22;24661;53.566;9.910;2023-01-09T11:29:37;7.40;99.90
38902;DHT22;24661;53.566;9.910;2023-01-09T11:32:03;7.50;99.90
38902;DHT22;24661;53.566;9.910;2023-01-09T11:34:35;7.60;99.90
38902;DHT22;24661;53.566;9.910;2023-01-09T11:37:10;7.50;99.90
38902;DHT22;24661;53.566;9.910;2023-01-09T11:39:39;7.50;99.90
38902;DHT22;24661;53.566;9.910;2023-01-09T11:42:22;7.50;99.90
38902;DHT22;24661;53.566;9.910;2023-01-09T11:45:16;7.50;99.90
38902;DHT22;24661;53.566;9.910;2023-01-09T11:47:43;7.50;99.90
38902;DHT22;24661;53.566;9.910;2023-01-09T11:50:23;7.00;99.90
38902;DHT22;24661;53.566;9.910;2023-01-09T11:53:16;7.70;99.90
38902;DHT22;24661;53.566;9.910;2023-01-09T11:55:42;7.80;99.90
38902;DHT22;24661;53.566;9.910;2023-01-09T11:58:19;8.00;99.90
38902;DHT22;24661;53.566;9.910;2023-01-09T12:01:13;7.90;99.90
38902;DHT22;24661;53.566;9.910;2023-01-09T12:07:06;8.00;99.90
38902;DHT22;24661;53.566;9.910;2023-01-09T12:09:58;8.00;99.90
38902;DHT22;24661;53.566;9.910;2023-01-09T12:15:42;8.00;99.90
38902;DHT22;24661;53.566;9.910;2023-01-09T12:26:24;7.30;99.90
38902;DHT22;24661;53.566;9.910;2023-01-09T12:29:33;7.80;99.90
38902;DHT22;24661;53.566;9.910;2023-01-09T12:32:26;7.90;99.90
38902;DHT22;24661;53.566;9.910;2023-01-09T12:37:54;8.00;99.90
38902;DHT22;24661;53.566;9.910;2023-01-09T12:40:33;8.00;99.90
38902;DHT22;24661;53.566;9.910;2023-01-09T12:43:14;8.00;99.90
38902;DHT22;24661;53.566;9.910;2023-01-09T12:45:57;8.00;99.90
38902;DHT22;24661;53.566;9.910;2023-01-09T12:48:52;8.00;99.90
38902;DHT22;24661;53.566;9.910;2023-01-09T12:51:51;8.00;99.90
38902;DHT22;24661;53.566;9.910;2023-01-09T12:54:24;8.00;99.90
38902;DHT22;24661;53.566;9.910;2023-01-09T12:57:00;8.00;99.90
38902;DHT22;24661;53.566;9.910;2023-01-09T12:59:33;8.00;99.90
38902;DHT22;24661;53.566;9.910;2023-01-09T13:05:05;8.00;99.90
38902;DHT22;24661;53.566;9.910;2023-01-09T13:07:41;8.00;99.90
38902;DHT22;24661;53.566;9.910;2023-01-09T13:10:30;8.00;99.90
38902;DHT22;24661;53.566;9.910;2023-01-09T13:13:01;8.10;99.90
38902;DHT22;24661;53.566;9.910;2023-01-09T13:18:21;8.20;99.90
38902;DHT22;24661;53.566;9.910;2023-01-09T13:20:51;8.20;99.90
38902;DHT22;24661;53.566;9.910;2023-01-09T13:26:15;8.20;99.90
38902;DHT22;24661;53.566;9.910;2023-01-09T13:28:42;8.20;99.90
38902;DHT22;24661;53.566;9.910;2023-01-09T13:31:18;8.20;99.90
38902;DHT22;24661;53.566;9.910;2023-01-09T13:33:55;8.20;99.90
38902;DHT22;24661;53.566;9.910;2023-01-09T13:36:25;8.10;99.90
38902;DHT22;24661;53.566;9.910;2023-01-09T13:38:56;8.00;99.90
38902;DHT22;24661;53.566;9.910;2023-01-09T13:41:23;7.90;99.90
38902;DHT22;24661;53.566;9.910;2023-01-09T13:46:44;7.90;99.90
38902;DHT22;24661;53.566;9.910;2023-01-09T13:59:46;7.90;99.90
38902;DHT22;24661;53.566;9.910;2023-01-09T14:08:00;7.90;99.90
38902;DHT22;24661;53.566;9.910;2023-01-09T14:10:51;8.00;99.90
38902;DHT22;24661;53.566;9.910;2023-01-09T14:13:20;8.00;99.90
38902;DHT22;24661;53.566;9.910;2023-01-09T14:15:47;7.90;99.90
38902;DHT22;24661;53.566;9.910;2023-01-09T14:18:16;8.00;99.90
38902;DHT22;24661;53.566;9.910;2023-01-09T14:20:54;7.90;99.90
38902;DHT22;24661;53.566;9.910;2023-01-09T14:23:26;9.00;99.90
38902;DHT22;24661;53.566;9.910;2023-01-09T14:25:52;7.90;99.90
38902;DHT22;24661;53.566;9.910;2023-01-09T14:28:23;7.80;99.90
38902;DHT22;24661;53.566;9.910;2023-01-09T14:36:09;7.80;99.90
38902;DHT22;24661;53.566;9.910;2023-01-09T14:39:01;7.70;99.90
38902;DHT22;24661;53.566;9.910;2023-01-09T14:41:37;7.80;99.90
38902;DHT22;24661;53.566;9.910;2023-01-09T14:44:51;7.70;99.90
38902;DHT22;24661;53.566;9.910;2023-01-09T14:52:38;7.60;99.90
38902;DHT22;24661;53.566;9.910;2023-01-09T14:55:28;7.60;99.90
38902;DHT22;24661;53.566;9.910;2023-01-09T14:58:08;7.60;99.90
38902;DHT22;24661;53.566;9.910;2023-01-09T15:00:34;7.50;99.90
38902;DHT22;24661;53.566;9.910;2023-01-09T15:03:01;7.50;99.90
38902;DHT22;24661;53.566;9.910;2023-01-09T15:05:27;7.50;99.90
38902;DHT22;24661;53.566;9.910;2023-01-09T15:08:00;7.50;99.90
38902;DHT22;24661;53.566;9.910;2023-01-09T15:10:31;7.40;99.90
38902;DHT22;24661;53.566;9.910;2023-01-09T15:12:59;7.50;99.90
38902;DHT22;24661;53.566;9.910;2023-01-09T15:15:26;7.40;99.90
38902;DHT22;24661;53.566;9.910;2023-01-09T15:18:03;7.40;99.90
38902;DHT22;24661;53.566;9.910;2023-01-09T15:20:30;7.40;99.90
38902;DHT22;24661;53.566;9.910;2023-01-09T15:22:57;7.40;99.90
38902;DHT22;24661;53.566;9.910;2023-01-09T15:25:37;7.40;99.90
38902;DHT22;24661;53.566;9.910;2023-01-09T15:28:25;7.40;99.90
38902;DHT22;24661;53.566;9.910;2023-01-09T15:31:03;7.30;99.90
38902;DHT22;24661;53.566;9.910;2023-01-09T15:33:30;7.30;99.90
38902;DHT22;24661;53.566;9.910;2023-01-09T15:35:57;7.30;99.90
38902;DHT22;24661;53.566;9.910;2023-01-09T15:38:28;7.20;99.90
38902;DHT22;24661;53.566;9.910;2023-01-09T15:40:58;7.30;99.90
38902;DHT22;24661;53.566;9.910;2023-01-09T15:43:26;7.20;99.90
38902;DHT22;24661;53.566;9.910;2023-01-09T15:45:53;7.10;99.90
38902;DHT22;24661;53.566;9.910;2023-01-09T15:50:57;7.00;99.90
38902;DHT22;24661;53.566;9.910;2023-01-09T15:53:26;7.00;99.90
38902;DHT22;24661;53.566;9.910;2023-01-09T15:58:31;6.90;99.90
38902;DHT22;24661;53.566;9.910;2023-01-09T16:03:35;6.90;99.90
38902;DHT22;24661;53.566;9.910;2023-01-09T16:06:07;7.00;99.90
38902;DHT22;24661;53.566;9.910;2023-01-09T16:08:36;7.00;99.90
38902;DHT22;24661;53.566;9.910;2023-01-09T16:11:06;7.00;99.90
38902;DHT22;24661;53.566;9.910;2023-01-09T16:13:43;6.90;99.90
38902;DHT22;24661;53.566;9.910;2023-01-09T16:16:10;7.00;99.90
38902;DHT22;24661;53.566;9.910;2023-01-09T16:18:38;7.00;99.90
38902;DHT22;24661;53.566;9.910;2023-01-09T16:21:31;7.00;99.90
38902;DHT22;24661;53.566;9.910;2023-01-09T16:26:29;7.00;99.90
38902;DHT22;24661;53.566;9.910;2023-01-09T16:28:55;7.20;99.90
38902;DHT22;24661;53.566;9.910;2023-01-09T16:31:27;7.10;99.90
38902;DHT22;24661;53.566;9.910;2023-01-09T16:34:01;7.10;99.90
38902;DHT22;24661;53.566;9.910;2023-01-09T16:36:29;7.10;99.90
38902;DHT22;24661;53.566;9.910;2023-01-09T16:38:55;7.10;99.90
38902;DHT22;24661;53.566;9.910;2023-01-09T16:41:21;7.20;99.90
38902;DHT22;24661;53.566;9.910;2023-01-09T16:44:07;7.20;99.90
38902;DHT22;24661;53.566;9.910;2023-01-09T16:46:38;7.20;99.90
38902;DHT22;24661;53.566;9.910;2023-01-09T16:49:15;7.20;99.90
38902;DHT22;24661;53.566;9.910;2023-01-09T16:51:41;7.20;99.90
38902;DHT22;24661;53.566;9.910;2023-01-09T16:54:06;9.20;99.90
38902;DHT22;24661;53.566;9.910;2023-01-09T16:56:33;7.20;99.90
38902;DHT22;24661;53.566;9.910;2023-01-09T16:58:59;7.30;99.90
38902;DHT22;24661;53.566;9.910;2023-01-09T17:01:26;7.30;99.90
38902;DHT22;24661;53.566;9.910;2023-01-09T17:03:52;7.30;99.90
38902;DHT22;24661;53.566;9.910;2023-01-09T17:06:23;7.30;99.90
38902;DHT22;24661;53.566;9.910;2023-01-09T17:08:49;8.80;99.90
38902;DHT22;24661;53.566;9.910;2023-01-09T17:11:25;7.30;99.90
38902;DHT22;24661;53.566;9.910;2023-01-09T17:14:00;7.30;99.90
38902;DHT22;24661;53.566;9.910;2023-01-09T17:16:27;7.30;99.90
38902;DHT22;24661;53.566;9.910;2023-01-09T17:18:54;7.20;99.90
38902;DHT22;24661;53.566;9.910;2023-01-09T17:21:21;7.20;99.90
38902;DHT22;24661;53.566;9.910;2023-01-09T17:23:47;7.20;99.90
38902;DHT22;24661;53.566;9.910;2023-01-09T17:26:34;7.20;99.90
38902;DHT22;24661;53.566;9.910;2023-01-09T17:29:19;7.30;99.90
38902;DHT22;24661;53.566;9.910;2023-01-09T17:31:45;7.30;99.90
38902;DHT22;24661;53.566;9.910;2023-01-09T17:34:12;7.30;99.90
38902;DHT22;24661;53.566;9.910;2023-01-09T17:36:37;7.30;99.90
38902;DHT22;24661;53.566;9.910;2023-01-09T17:39:03;7.20;99.90
38902;DHT22;24661;53.566;9.910;2023-01-09T17:41:30;7.20;99.90
38902;DHT22;24661;53.566;9.910;2023-01-09T17:43:57;7.20;99.90
38902;DHT22;24661;53.566;9.910;2023-01-09T17:46:27;7.20;99.90
38902;DHT22;24661;53.566;9.910;2023-01-09T17:48:53;7.20;99.90
38902;DHT22;24661;53.566;9.910;2023-01-09T17:51:19;7.20;99.90
38902;DHT22;24661;53.566;9.910;2023-01-09T17:53:45;7.00;99.90
38902;DHT22;24661;53.566;9.910;2023-01-09T17:56:16;7.00;99.90
38902;DHT22;24661;53.566;9.910;2023-01-09T17:58:42;7.00;99.90
38902;DHT22;24661;53.566;9.910;2023-01-09T18:01:10;7.00;99.90
38902;DHT22;24661;53.566;9.910;2023-01-09T18:03:37;7.00;99.90
38902;DHT22;24661;53.566;9.910;2023-01-09T18:06:02;7.00;99.90
38902;DHT22;24661;53.566;9.910;2023-01-09T18:08:28;7.00;99.90